Camocim Airport


Codes: SNWC/CMC
Name: Camocim Airport
City: Camocim
Country: Brazil
Elevation: 16 ft.

Photos at Camocim Airport


   Photos courtesy of SpottingLog. You can add your own sightings and photos by signing up for a free trial today.



No photos found.

Weather at Camocim Airport


Time (UTC)DescriptionTempratureWindCloud coverageVisibilityPressureHumidity
13-Jun-2024 03:00Light Rain26°C13 mph, E83%10000m1013hPa80%
13-Jun-2024 06:00Light Rain26°C16 mph, SE82%10000m1012hPa81%
13-Jun-2024 09:00Broken Clouds24°C11 mph, SE55%10000m1013hPa89%
13-Jun-2024 12:00Scattered Clouds28°C11 mph, SE34%10000m1014hPa65%
13-Jun-2024 15:00Clear Sky31°C11 mph, E7%10000m1012hPa55%
13-Jun-2024 18:00Clear Sky31°C11 mph, E10%10000m1010hPa60%
13-Jun-2024 21:00Light Rain28°C13 mph, E46%10000m1011hPa76%
14-Jun-2024 00:00Scattered Clouds26°C16 mph, E33%10000m1013hPa79%
14-Jun-2024 03:00Clear Sky25°C13 mph, E7%10000m1013hPa81%
14-Jun-2024 06:00Clear Sky23°C11 mph, SE5%10000m1012hPa91%
14-Jun-2024 09:00Few Clouds23°C11 mph, SE13%10000m1013hPa94%
14-Jun-2024 12:00Clear Sky28°C11 mph, SE8%10000m1015hPa70%
14-Jun-2024 15:00Light Rain29°C13 mph, E32%10000m1013hPa68%
14-Jun-2024 18:00Light Rain28°C11 mph, E30%4998m1011hPa81%
14-Jun-2024 21:00Moderate Rain26°C11 mph, E46%10000m1012hPa88%
15-Jun-2024 00:00Light Rain25°C13 mph, E41%10000m1014hPa90%
15-Jun-2024 03:00Clear Sky24°C13 mph, E5%10000m1013hPa89%
15-Jun-2024 06:00Clear Sky24°C11 mph, E7%10000m1012hPa90%
15-Jun-2024 09:00Few Clouds23°C11 mph, SE11%10000m1013hPa92%
15-Jun-2024 12:00Clear Sky27°C11 mph, SE8%10000m1015hPa72%
15-Jun-2024 15:00Scattered Clouds30°C13 mph, SE30%10000m1013hPa61%
15-Jun-2024 18:00Broken Clouds30°C9 mph, SE65%10000m1011hPa62%
15-Jun-2024 21:00Light Rain27°C9 mph, E100%10000m1012hPa78%
16-Jun-2024 00:00Light Rain25°C11 mph, E87%10000m1013hPa83%
16-Jun-2024 03:00Clear Sky25°C13 mph, E8%10000m1013hPa83%
16-Jun-2024 06:00Light Rain25°C13 mph, SE10%10000m1011hPa84%
16-Jun-2024 09:00Light Rain23°C11 mph, SE4%10000m1012hPa91%
16-Jun-2024 12:00Clear Sky28°C13 mph, SE4%10000m1013hPa68%
16-Jun-2024 15:00Clear Sky31°C13 mph, SE1%10000m1012hPa58%
16-Jun-2024 18:00Few Clouds31°C11 mph, E24%10000m1010hPa59%
16-Jun-2024 21:00Overcast Clouds28°C9 mph, E90%10000m1011hPa75%
17-Jun-2024 00:00Light Rain26°C9 mph, E65%10000m1012hPa82%
17-Jun-2024 03:00Light Rain25°C11 mph, E28%10000m1012hPa83%
17-Jun-2024 06:00Few Clouds24°C13 mph, SE21%10000m1011hPa85%
17-Jun-2024 09:00Broken Clouds24°C9 mph, SE80%10000m1011hPa84%
17-Jun-2024 12:00Scattered Clouds28°C13 mph, SE44%10000m1012hPa67%
17-Jun-2024 15:00Few Clouds31°C11 mph, E16%10000m1011hPa59%
17-Jun-2024 18:00Scattered Clouds29°C11 mph, E42%10000m1009hPa66%
17-Jun-2024 21:00Light Rain27°C11 mph, E69%10000m1010hPa76%
18-Jun-2024 00:00Broken Clouds26°C13 mph, E67%10000m1011hPa79%